createdAt,value
2022-10-02T00:00:20.586Z,12.80
2022-10-02T00:02:56.062Z,12.80
2022-10-02T00:05:52.500Z,12.70
2022-10-02T00:08:29.150Z,12.80
2022-10-02T00:11:01.561Z,12.70
2022-10-02T00:13:49.488Z,12.70
2022-10-02T00:16:34.789Z,12.70
2022-10-02T00:19:02.405Z,12.70
2022-10-02T00:21:38.243Z,12.70
2022-10-02T00:24:14.677Z,12.70
2022-10-02T00:26:51.084Z,12.70
2022-10-02T00:29:44.272Z,12.70
2022-10-02T00:32:49.711Z,12.70
2022-10-02T00:35:56.387Z,12.70
2022-10-02T00:38:37.901Z,12.80
2022-10-02T00:41:35.310Z,12.80
2022-10-02T00:44:38.316Z,12.80
2022-10-02T00:47:44.136Z,12.80
2022-10-02T00:50:18.058Z,12.80
2022-10-02T00:52:56.123Z,12.80
2022-10-02T00:56:01.044Z,12.70
2022-10-02T00:58:30.526Z,12.70
2022-10-02T01:01:09.447Z,12.80
2022-10-02T01:03:56.565Z,12.70
2022-10-02T01:06:27.445Z,12.70
2022-10-02T01:08:55.487Z,12.70
2022-10-02T01:11:26.105Z,12.70
2022-10-02T01:13:53.043Z,12.70
2022-10-02T01:16:19.997Z,12.70
2022-10-02T01:18:48.057Z,12.70
2022-10-02T01:21:23.087Z,12.70
2022-10-02T01:24:12.983Z,12.70
2022-10-02T01:26:39.689Z,12.70
2022-10-02T01:29:06.518Z,12.80
2022-10-02T01:31:35.995Z,12.80
2022-10-02T01:34:03.411Z,12.80
2022-10-02T01:36:30.658Z,12.80
2022-10-02T01:38:58.451Z,12.80
2022-10-02T01:41:25.576Z,12.80
2022-10-02T01:43:55.590Z,12.80
2022-10-02T01:46:35.302Z,12.80
2022-10-02T01:49:17.322Z,12.80
2022-10-02T01:52:10.447Z,12.80
2022-10-02T01:55:02.047Z,12.80
2022-10-02T01:57:37.673Z,12.80
2022-10-02T02:00:20.339Z,12.70
2022-10-02T02:02:59.146Z,12.70
2022-10-02T02:05:53.426Z,12.70
2022-10-02T02:08:34.291Z,12.80
2022-10-02T02:11:11.596Z,12.80
2022-10-02T02:13:53.260Z,12.80
2022-10-02T02:16:40.447Z,12.90
2022-10-02T02:19:16.052Z,12.90
2022-10-02T02:21:44.483Z,12.90
2022-10-02T02:24:26.550Z,12.90
2022-10-02T02:26:57.665Z,12.90
2022-10-02T02:29:28.307Z,12.90
2022-10-02T02:31:57.498Z,12.90
2022-10-02T02:34:31.217Z,12.90
2022-10-02T02:37:04.606Z,12.90
2022-10-02T02:39:39.642Z,12.90
2022-10-02T02:42:10.286Z,12.90
2022-10-02T02:45:01.138Z,13.00
2022-10-02T02:47:42.178Z,13.10
2022-10-02T02:50:14.685Z,13.10
2022-10-02T02:53:03.408Z,13.10
2022-10-02T02:55:55.527Z,13.10
2022-10-02T02:58:53.109Z,13.10
2022-10-02T03:01:20.121Z,13.10
2022-10-02T03:03:47.650Z,13.10
2022-10-02T03:06:18.952Z,13.10
2022-10-02T03:08:48.317Z,13.10
2022-10-02T03:11:32.785Z,13.10
2022-10-02T03:14:20.539Z,13.00
2022-10-02T03:17:03.935Z,13.00
2022-10-02T03:19:42.606Z,13.00
2022-10-02T03:22:24.509Z,13.10
2022-10-02T03:25:15.772Z,13.10
2022-10-02T03:28:27.170Z,13.20
2022-10-02T03:31:04.488Z,13.20
2022-10-02T03:33:33.350Z,13.10
2022-10-02T03:36:00.727Z,13.10
2022-10-02T03:38:28.785Z,13.10
2022-10-02T03:40:58.292Z,13.10
2022-10-02T03:43:29.232Z,13.00
2022-10-02T03:45:56.097Z,13.00
2022-10-02T03:48:23.146Z,13.10
2022-10-02T03:50:52.665Z,13.00
2022-10-02T03:53:25.430Z,13.00
2022-10-02T03:56:17.872Z,13.00
2022-10-02T03:58:48.366Z,12.90
2022-10-02T04:01:25.033Z,12.90
2022-10-02T04:04:01.413Z,13.00
2022-10-02T04:06:48.810Z,13.00
2022-10-02T04:09:21.988Z,13.10
2022-10-02T04:11:53.610Z,13.10
2022-10-02T04:14:27.511Z,13.10
2022-10-02T04:17:04.016Z,13.10
2022-10-02T04:19:48.934Z,13.10
2022-10-02T04:22:35.510Z,13.10
2022-10-02T04:25:22.361Z,13.10
2022-10-02T04:28:14.668Z,13.10
2022-10-02T04:30:41.601Z,13.20
2022-10-02T04:33:19.290Z,13.20
2022-10-02T04:36:10.017Z,13.20
2022-10-02T04:39:21.450Z,13.20
2022-10-02T04:42:06.012Z,13.30
2022-10-02T04:45:13.886Z,13.30
2022-10-02T04:48:30.525Z,13.30
2022-10-02T04:51:11.947Z,13.30
2022-10-02T04:53:47.597Z,13.30
2022-10-02T04:56:17.102Z,13.40
2022-10-02T04:58:58.994Z,13.40
2022-10-02T05:02:02.011Z,13.30
2022-10-02T05:04:40.810Z,13.40
2022-10-02T05:07:53.689Z,13.40
2022-10-02T05:10:54.784Z,13.40
2022-10-02T05:13:27.406Z,13.40
2022-10-02T05:16:02.706Z,13.50
2022-10-02T05:18:29.880Z,13.40
2022-10-02T05:20:59.336Z,13.40
2022-10-02T05:23:59.340Z,13.40
2022-10-02T05:26:35.522Z,13.40
2022-10-02T05:29:18.292Z,13.40
2022-10-02T05:32:06.147Z,13.40
2022-10-02T05:34:49.068Z,13.40
2022-10-02T05:37:24.362Z,13.30
2022-10-02T05:40:03.099Z,13.30
2022-10-02T05:42:43.123Z,13.20
2022-10-02T05:45:29.217Z,13.20
2022-10-02T05:48:07.741Z,13.30
2022-10-02T05:50:36.343Z,13.30
2022-10-02T05:53:18.187Z,13.20
2022-10-02T05:55:59.061Z,13.20
2022-10-02T05:58:34.563Z,13.30
2022-10-02T06:01:39.720Z,13.30
2022-10-02T06:04:28.405Z,13.20
2022-10-02T06:07:10.292Z,13.20
2022-10-02T06:09:47.255Z,13.20
2022-10-02T06:12:26.839Z,13.30
2022-10-02T06:15:16.988Z,13.30
2022-10-02T06:18:08.710Z,13.30
2022-10-02T06:20:42.666Z,13.30
2022-10-02T06:23:26.748Z,13.30
2022-10-02T06:25:53.535Z,13.30
2022-10-02T06:28:35.015Z,13.40
2022-10-02T06:31:34.631Z,13.40
2022-10-02T06:34:01.473Z,13.40
2022-10-02T06:36:37.551Z,13.30
2022-10-02T06:39:10.680Z,13.30
2022-10-02T06:42:02.181Z,13.40
2022-10-02T06:44:57.038Z,13.40
2022-10-02T06:47:44.719Z,13.50
2022-10-02T06:50:38.178Z,13.50
2022-10-02T06:53:33.840Z,13.50
2022-10-02T06:56:24.184Z,13.50
2022-10-02T06:59:11.722Z,13.50
2022-10-02T07:02:09.560Z,13.60
2022-10-02T07:04:54.757Z,13.60
2022-10-02T07:07:33.447Z,13.60
2022-10-02T07:10:18.027Z,13.70
2022-10-02T07:13:17.798Z,13.70
2022-10-02T07:16:09.127Z,13.60
2022-10-02T07:18:47.639Z,13.80
2022-10-02T07:21:32.951Z,13.90
2022-10-02T07:24:37.978Z,13.90
2022-10-02T07:27:42.591Z,13.90
2022-10-02T07:30:12.335Z,13.90
2022-10-02T07:32:48.809Z,13.90
2022-10-02T07:35:39.843Z,14.00
2022-10-02T07:38:15.212Z,14.00
2022-10-02T07:41:20.516Z,14.10
2022-10-02T07:43:59.479Z,14.20
2022-10-02T07:46:39.266Z,14.40
2022-10-02T07:49:48.830Z,14.40
2022-10-02T07:52:38.527Z,14.30
2022-10-02T07:55:21.384Z,14.20
2022-10-02T07:58:06.344Z,14.30
2022-10-02T08:00:39.622Z,14.30
2022-10-02T08:03:21.167Z,14.30
2022-10-02T08:05:54.383Z,14.50
2022-10-02T08:08:40.168Z,14.50
2022-10-02T08:11:21.578Z,14.70
2022-10-02T08:14:11.395Z,14.70
2022-10-02T08:17:06.923Z,14.80
2022-10-02T08:19:43.846Z,14.80
2022-10-02T08:22:38.537Z,14.80
2022-10-02T08:25:20.019Z,14.90
2022-10-02T08:28:05.765Z,15.00
2022-10-02T08:30:32.578Z,15.10
2022-10-02T08:32:59.358Z,15.10
2022-10-02T08:35:41.388Z,15.20
2022-10-02T08:38:14.052Z,15.20
2022-10-02T08:40:46.978Z,15.30
2022-10-02T08:43:17.179Z,15.20
2022-10-02T08:46:14.691Z,15.20
2022-10-02T08:49:18.753Z,15.20
2022-10-02T08:52:24.084Z,15.40
2022-10-02T08:54:59.521Z,15.50
2022-10-02T08:57:38.569Z,15.40
2022-10-02T09:00:20.719Z,15.30
2022-10-02T09:03:25.808Z,15.40
2022-10-02T09:06:20.578Z,15.60
2022-10-02T09:09:21.547Z,15.70
2022-10-02T09:11:54.280Z,15.70
2022-10-02T09:14:58.931Z,15.80
2022-10-02T09:17:32.318Z,15.90
2022-10-02T09:20:05.054Z,16.00
2022-10-02T09:23:09.511Z,15.90
2022-10-02T09:26:17.251Z,16.00
2022-10-02T09:28:52.804Z,15.90
2022-10-02T09:31:53.462Z,15.90
2022-10-02T09:35:05.260Z,15.90
2022-10-02T09:38:05.487Z,15.90
2022-10-02T09:40:35.365Z,16.00
2022-10-02T09:43:27.917Z,16.20
2022-10-02T09:46:26.892Z,16.30
2022-10-02T09:48:59.886Z,16.40
2022-10-02T09:51:45.075Z,16.60
2022-10-02T09:54:33.394Z,16.70
2022-10-02T09:57:31.670Z,16.90
2022-10-02T10:00:19.317Z,17.10
2022-10-02T10:03:26.624Z,17.40
2022-10-02T10:05:59.131Z,17.40
2022-10-02T10:09:27.881Z,17.40
2022-10-02T10:12:21.628Z,17.60
2022-10-02T10:15:09.210Z,18.00
2022-10-02T10:17:44.851Z,18.20
2022-10-02T10:20:12.753Z,18.50
2022-10-02T10:23:07.267Z,18.80
2022-10-02T10:25:52.702Z,18.90
2022-10-02T10:28:50.401Z,19.00
2022-10-02T10:31:48.345Z,19.40
2022-10-02T10:34:46.133Z,19.60
2022-10-02T10:37:50.168Z,19.80
2022-10-02T10:40:38.438Z,19.90
2022-10-02T10:43:36.492Z,20.10
2022-10-02T10:46:21.591Z,20.20
2022-10-02T10:49:10.410Z,20.30
2022-10-02T10:51:53.804Z,20.20
2022-10-02T10:54:53.035Z,20.20
2022-10-02T10:57:47.939Z,20.10
2022-10-02T11:00:20.617Z,20.00
2022-10-02T11:03:15.626Z,19.90
2022-10-02T11:06:02.804Z,19.90
2022-10-02T11:08:58.453Z,19.90
2022-10-02T11:12:05.237Z,20.00
2022-10-02T11:14:51.171Z,20.00
2022-10-02T11:17:31.248Z,19.80
2022-10-02T11:20:00.737Z,19.70
2022-10-02T11:23:01.543Z,19.80
2022-10-02T11:26:08.249Z,19.80
2022-10-02T11:29:02.112Z,19.90
2022-10-02T11:31:50.643Z,19.90
2022-10-02T11:34:52.150Z,20.00
2022-10-02T11:37:50.074Z,19.90
2022-10-02T11:40:57.867Z,20.00
2022-10-02T11:43:30.563Z,19.80
2022-10-02T11:46:28.040Z,19.80
2022-10-02T11:49:26.505Z,19.80
2022-10-02T11:52:05.879Z,19.90
2022-10-02T11:54:55.719Z,20.00
2022-10-02T11:57:40.504Z,20.00
2022-10-02T12:00:45.370Z,20.00
2022-10-02T12:04:06.088Z,20.00
2022-10-02T12:06:53.396Z,20.00
2022-10-02T12:09:48.429Z,20.00
2022-10-02T12:12:36.417Z,20.10
2022-10-02T12:15:07.194Z,20.20
2022-10-02T12:18:16.160Z,20.30
2022-10-02T12:21:19.192Z,20.40
2022-10-02T12:24:20.532Z,20.30
2022-10-02T12:27:16.569Z,19.70
2022-10-02T12:30:00.806Z,18.60
2022-10-02T12:32:38.441Z,17.90
2022-10-02T12:35:17.859Z,17.40
2022-10-02T12:37:50.687Z,17.20
2022-10-02T12:40:45.019Z,16.80
2022-10-02T12:43:31.937Z,16.40
2022-10-02T12:46:24.381Z,16.10
2022-10-02T12:49:12.369Z,15.80
2022-10-02T12:51:47.496Z,15.60
2022-10-02T12:54:33.824Z,15.30
2022-10-02T12:57:36.652Z,15.00
2022-10-02T13:00:31.102Z,14.90
2022-10-02T13:03:26.426Z,14.80
2022-10-02T13:06:16.345Z,14.90
2022-10-02T13:09:22.099Z,14.90
2022-10-02T13:12:19.971Z,14.90
2022-10-02T13:14:52.455Z,14.80
2022-10-02T13:17:36.849Z,14.70
2022-10-02T13:20:13.009Z,14.60
2022-10-02T13:22:55.266Z,14.50
2022-10-02T13:25:25.100Z,14.50
2022-10-02T13:28:05.654Z,14.50
2022-10-02T13:30:56.999Z,14.50
2022-10-02T13:33:42.308Z,14.40
2022-10-02T13:36:34.167Z,14.40
2022-10-02T13:39:34.711Z,14.20
2022-10-02T13:42:18.581Z,14.10
2022-10-02T13:45:20.035Z,14.10
2022-10-02T13:48:13.160Z,14.10
2022-10-02T13:50:59.321Z,13.90
2022-10-02T13:53:47.646Z,13.80
2022-10-02T13:56:17.520Z,13.70
2022-10-02T13:59:12.919Z,13.70
2022-10-02T14:02:11.608Z,13.70
2022-10-02T14:04:55.509Z,13.70
2022-10-02T14:07:35.505Z,13.70
2022-10-02T14:10:08.138Z,13.60
2022-10-02T14:12:52.418Z,13.50
2022-10-02T14:15:38.008Z,13.60
2022-10-02T14:18:14.209Z,13.50
2022-10-02T14:21:15.072Z,13.50
2022-10-02T14:24:56.354Z,13.40
2022-10-02T14:27:50.547Z,13.30
2022-10-02T14:30:19.053Z,13.30
2022-10-02T14:32:53.798Z,13.30
2022-10-02T14:35:20.555Z,13.20
2022-10-02T14:38:08.412Z,13.20
2022-10-02T14:40:57.285Z,13.20
2022-10-02T14:43:40.393Z,13.20
2022-10-02T14:46:18.457Z,13.20
2022-10-02T14:49:07.696Z,13.20
2022-10-02T14:51:37.544Z,13.20
2022-10-02T14:54:23.646Z,13.20
2022-10-02T14:57:22.122Z,13.10
2022-10-02T15:00:17.078Z,13.10
2022-10-02T15:03:03.010Z,13.10
2022-10-02T15:05:32.730Z,13.10
2022-10-02T15:08:00.226Z,13.10
2022-10-02T15:10:33.113Z,13.10
2022-10-02T15:13:28.402Z,13.20
2022-10-02T15:16:21.461Z,13.20
2022-10-02T15:19:03.867Z,13.10
2022-10-02T15:21:56.368Z,13.20
2022-10-02T15:24:29.489Z,13.20
2022-10-02T15:27:17.470Z,13.20
2022-10-02T15:29:47.217Z,13.20
2022-10-02T15:32:35.416Z,13.30
2022-10-02T15:35:39.071Z,13.10
2022-10-02T15:38:34.811Z,13.10
2022-10-02T15:41:32.157Z,13.10
2022-10-02T15:44:06.799Z,13.20
2022-10-02T15:46:54.509Z,13.20
2022-10-02T15:49:56.490Z,13.30
2022-10-02T15:52:47.907Z,13.40
2022-10-02T15:55:21.183Z,13.50
2022-10-02T15:57:51.347Z,13.50
2022-10-02T16:00:27.199Z,13.50
2022-10-02T16:03:18.016Z,13.60
2022-10-02T16:06:29.284Z,13.60
2022-10-02T16:09:01.775Z,13.70
2022-10-02T16:11:43.434Z,13.80
2022-10-02T16:14:14.952Z,13.80
2022-10-02T16:16:42.303Z,13.80
2022-10-02T16:19:39.551Z,13.80
2022-10-02T16:22:18.107Z,13.80
2022-10-02T16:25:12.801Z,13.80
2022-10-02T16:28:11.342Z,13.70
2022-10-02T16:30:50.122Z,13.80
2022-10-02T16:33:37.884Z,13.80
2022-10-02T16:36:19.103Z,13.70
2022-10-02T16:39:05.403Z,13.80
2022-10-02T16:41:42.703Z,13.80
2022-10-02T16:44:28.370Z,13.80
2022-10-02T16:47:04.287Z,13.80
2022-10-02T16:49:49.166Z,13.80
2022-10-02T16:52:41.128Z,13.80
2022-10-02T16:55:26.006Z,13.80
2022-10-02T16:58:06.766Z,13.80
2022-10-02T17:01:02.157Z,13.80
2022-10-02T17:03:45.097Z,13.80
2022-10-02T17:06:29.599Z,13.80
2022-10-02T17:09:14.626Z,13.80
2022-10-02T17:11:59.255Z,13.80
2022-10-02T17:14:37.702Z,13.70
2022-10-02T17:17:20.864Z,13.70
2022-10-02T17:19:53.455Z,13.80
2022-10-02T17:22:27.402Z,13.80
2022-10-02T17:25:13.496Z,13.70
2022-10-02T17:28:01.420Z,13.70
2022-10-02T17:30:43.374Z,13.70
2022-10-02T17:33:13.165Z,13.80
2022-10-02T17:36:07.601Z,13.70
2022-10-02T17:39:07.779Z,13.70
2022-10-02T17:41:53.604Z,13.70
2022-10-02T17:44:33.945Z,13.70
2022-10-02T17:47:35.879Z,13.70
2022-10-02T17:50:17.792Z,13.70
2022-10-02T17:53:05.281Z,13.60
2022-10-02T17:55:53.339Z,13.70
2022-10-02T17:58:42.157Z,13.70
2022-10-02T18:01:28.453Z,13.70
2022-10-02T18:04:02.907Z,13.70
2022-10-02T18:06:53.253Z,13.70
2022-10-02T18:09:22.972Z,13.70
2022-10-02T18:12:39.245Z,13.70
2022-10-02T18:15:51.161Z,13.80
2022-10-02T18:18:29.864Z,13.80
2022-10-02T18:21:08.642Z,13.80
2022-10-02T18:24:12.620Z,13.80
2022-10-02T18:27:08.401Z,13.80
2022-10-02T18:29:35.072Z,13.70
2022-10-02T18:32:29.841Z,13.70
2022-10-02T18:35:15.188Z,13.70
2022-10-02T18:38:06.172Z,13.70
2022-10-02T18:40:56.090Z,13.60
2022-10-02T18:43:34.279Z,13.50
2022-10-02T18:46:45.593Z,13.40
2022-10-02T18:49:37.931Z,13.30
2022-10-02T18:52:18.832Z,13.20
2022-10-02T18:55:05.869Z,13.10
2022-10-02T18:57:53.115Z,13.00
2022-10-02T19:00:25.966Z,12.90
2022-10-02T19:03:23.568Z,12.80
2022-10-02T19:06:21.927Z,12.80
2022-10-02T19:09:07.081Z,12.70
2022-10-02T19:12:17.041Z,12.70
2022-10-02T19:14:47.954Z,12.70
2022-10-02T19:17:21.757Z,12.70
2022-10-02T19:19:48.439Z,12.70
2022-10-02T19:22:22.204Z,12.70
2022-10-02T19:25:06.787Z,12.70
2022-10-02T19:27:35.608Z,12.70
2022-10-02T19:30:07.730Z,12.70
2022-10-02T19:32:40.473Z,12.70
2022-10-02T19:35:20.765Z,12.70
2022-10-02T19:37:52.215Z,12.80
2022-10-02T19:40:23.051Z,12.80
2022-10-02T19:42:56.673Z,12.80
2022-10-02T19:45:27.223Z,12.80
2022-10-02T19:48:00.411Z,12.80
2022-10-02T19:50:39.820Z,12.80
2022-10-02T19:53:27.460Z,12.80
2022-10-02T19:55:59.551Z,12.90
2022-10-02T19:58:50.734Z,12.90
2022-10-02T20:01:27.104Z,12.90
2022-10-02T20:03:59.864Z,13.00
2022-10-02T20:06:39.824Z,13.00
2022-10-02T20:09:18.841Z,13.00
2022-10-02T20:11:50.461Z,13.00
2022-10-02T20:14:44.139Z,13.00
2022-10-02T20:17:13.120Z,13.00
2022-10-02T20:19:56.447Z,13.00
2022-10-02T20:22:38.494Z,13.00
2022-10-02T20:25:28.486Z,13.00
2022-10-02T20:28:21.029Z,13.00
2022-10-02T20:31:12.621Z,13.00
2022-10-02T20:33:58.145Z,13.00
2022-10-02T20:36:31.481Z,13.00
2022-10-02T20:39:17.563Z,13.00
2022-10-02T20:41:54.346Z,12.90
2022-10-02T20:44:21.199Z,12.90
2022-10-02T20:47:05.584Z,12.90
2022-10-02T20:49:41.316Z,12.90
2022-10-02T20:52:26.317Z,12.90
2022-10-02T20:55:01.962Z,12.90
2022-10-02T20:58:16.177Z,12.90
2022-10-02T21:01:20.809Z,12.90
2022-10-02T21:04:13.064Z,12.90
2022-10-02T21:06:52.863Z,12.90
2022-10-02T21:09:56.524Z,13.00
2022-10-02T21:13:17.499Z,13.00
2022-10-02T21:16:05.542Z,13.00
2022-10-02T21:19:05.269Z,12.90
2022-10-02T21:21:53.664Z,13.00
2022-10-02T21:24:52.826Z,13.00
2022-10-02T21:27:44.023Z,13.00
2022-10-02T21:30:17.693Z,13.10
2022-10-02T21:33:10.993Z,13.10
2022-10-02T21:35:56.230Z,13.10
2022-10-02T21:38:26.525Z,13.20
2022-10-02T21:41:49.920Z,13.10
2022-10-02T21:44:54.508Z,13.00
2022-10-02T21:48:04.602Z,13.10
2022-10-02T21:50:46.574Z,13.10
2022-10-02T21:53:13.269Z,13.10
2022-10-02T21:55:58.635Z,13.00
2022-10-02T21:58:37.343Z,13.00
2022-10-02T22:01:22.879Z,13.00
2022-10-02T22:04:08.426Z,13.00
2022-10-02T22:06:36.512Z,13.00
2022-10-02T22:09:09.265Z,13.00
2022-10-02T22:12:13.859Z,12.90
2022-10-02T22:14:47.734Z,12.90
2022-10-02T22:17:14.439Z,12.90
2022-10-02T22:20:08.898Z,12.90
2022-10-02T22:23:18.948Z,12.90
2022-10-02T22:26:04.247Z,12.90
2022-10-02T22:28:40.540Z,12.80
2022-10-02T22:31:33.507Z,12.80
2022-10-02T22:34:00.277Z,12.80
2022-10-02T22:36:48.305Z,12.80
2022-10-02T22:39:24.715Z,12.70
2022-10-02T22:42:00.549Z,12.70
2022-10-02T22:45:00.553Z,12.70
2022-10-02T22:47:34.504Z,12.80
2022-10-02T22:50:13.221Z,12.80
2022-10-02T22:52:55.051Z,12.80
2022-10-02T22:55:29.231Z,12.70
2022-10-02T22:58:12.371Z,12.70
2022-10-02T23:01:16.876Z,12.70
2022-10-02T23:04:01.426Z,12.80
2022-10-02T23:06:50.223Z,12.80
2022-10-02T23:09:22.653Z,12.80
2022-10-02T23:12:26.637Z,12.80
2022-10-02T23:15:17.399Z,12.70
2022-10-02T23:17:50.408Z,12.70
2022-10-02T23:20:39.671Z,12.80
2022-10-02T23:23:28.245Z,12.70
2022-10-02T23:26:11.350Z,12.80
2022-10-02T23:28:53.134Z,12.80
2022-10-02T23:31:31.262Z,12.80
2022-10-02T23:34:32.555Z,12.80
2022-10-02T23:37:21.727Z,12.80
2022-10-02T23:40:05.379Z,12.70
2022-10-02T23:42:45.291Z,12.60
2022-10-02T23:45:26.008Z,12.60
2022-10-02T23:48:04.059Z,12.50
2022-10-02T23:50:41.961Z,12.40
2022-10-02T23:53:50.312Z,12.30
2022-10-02T23:56:29.462Z,12.30
2022-10-02T23:59:03.819Z,12.20
